createdAt,value
2023-04-08T00:07:12.742Z,99.90
2023-04-08T00:12:15.529Z,99.90
2023-04-08T00:17:18.298Z,99.90
2023-04-08T00:22:21.113Z,99.90
2023-04-08T00:37:32.236Z,99.90
2023-04-08T00:57:46.989Z,99.90
2023-04-08T01:02:52.819Z,99.90
2023-04-08T01:07:55.417Z,99.90
2023-04-08T01:13:02.227Z,99.90
2023-04-08T01:18:08.803Z,99.90
2023-04-08T01:23:22.687Z,99.90
2023-04-08T01:28:29.551Z,99.90
2023-04-08T01:33:34.712Z,99.90
2023-04-08T01:38:41.205Z,99.90
2023-04-08T01:43:44.891Z,99.90
2023-04-08T01:48:49.172Z,99.90
2023-04-08T01:58:56.042Z,99.90
2023-04-08T02:04:00.661Z,99.90
2023-04-08T02:19:24.891Z,99.90
2023-04-08T02:24:29.108Z,99.90
2023-04-08T02:29:33.577Z,99.90
2023-04-08T02:34:37.427Z,99.90
2023-04-08T02:40:36.407Z,99.90
2023-04-08T02:46:23.153Z,99.90
2023-04-08T02:58:45.262Z,99.90
2023-04-08T03:04:48.079Z,99.90
2023-04-08T03:10:14.297Z,99.90
2023-04-08T03:15:54.064Z,99.90
2023-04-08T03:21:29.201Z,99.90
2023-04-08T03:27:07.249Z,99.90
2023-04-08T03:32:46.699Z,99.90
2023-04-08T03:38:02.861Z,99.90
2023-04-08T03:43:29.867Z,99.90
2023-04-08T03:49:15.997Z,99.90
2023-04-08T03:54:45.135Z,99.90
2023-04-08T04:00:10.673Z,99.90
2023-04-08T04:05:45.136Z,99.90
2023-04-08T04:30:06.325Z,99.90
2023-04-08T04:35:19.615Z,99.90
2023-04-08T04:40:31.304Z,99.90
2023-04-08T04:51:26.319Z,99.90
2023-04-08T04:56:58.197Z,99.90
2023-04-08T05:02:01.111Z,99.90
2023-04-08T05:07:16.452Z,99.90
2023-04-08T05:17:27.345Z,99.90
2023-04-08T05:23:16.365Z,99.90
2023-04-08T05:28:19.911Z,99.90
2023-04-08T05:33:42.595Z,99.90
2023-04-08T05:39:04.585Z,99.90
2023-04-08T05:44:36.047Z,99.90
2023-04-08T05:50:01.882Z,99.90
2023-04-08T05:56:20.748Z,99.90
2023-04-08T06:07:17.551Z,99.90
2023-04-08T06:18:11.419Z,99.90
2023-04-08T06:23:38.306Z,99.90
2023-04-08T06:34:41.779Z,99.90
2023-04-08T06:45:33.489Z,99.90
2023-04-08T06:51:38.805Z,99.90
2023-04-08T07:03:13.808Z,99.90
2023-04-08T07:08:38.552Z,99.90
2023-04-08T07:14:00.056Z,99.90
2023-04-08T07:19:28.564Z,99.90
2023-04-08T07:25:44.080Z,99.90
2023-04-08T07:31:31.097Z,99.90
2023-04-08T07:37:18.111Z,99.90
2023-04-08T07:43:14.357Z,99.90
2023-04-08T07:54:24.729Z,99.90
2023-04-08T08:00:20.019Z,99.90
2023-04-08T08:06:04.258Z,99.90
2023-04-08T08:12:54.196Z,99.90
2023-04-08T08:29:24.774Z,99.90
2023-04-08T08:34:27.583Z,99.90
2023-04-08T08:39:30.850Z,99.90
2023-04-08T08:44:34.420Z,99.90
2023-04-08T08:49:36.966Z,99.90
2023-04-08T08:54:39.476Z,99.90
2023-04-08T08:59:42.123Z,99.90
2023-04-08T09:04:58.141Z,99.90
2023-04-08T09:10:00.821Z,99.90
2023-04-08T09:15:08.384Z,99.90
2023-04-08T09:20:13.362Z,99.90
2023-04-08T09:25:27.336Z,99.90
2023-04-08T09:30:32.406Z,99.90
2023-04-08T09:35:35.128Z,99.90
2023-04-08T09:40:38.758Z,99.90
2023-04-08T09:45:43.057Z,99.90
2023-04-08T09:50:50.397Z,99.90
2023-04-08T09:55:57.468Z,99.90
2023-04-08T10:01:00.391Z,99.90
2023-04-08T10:06:03.782Z,99.90
2023-04-08T10:11:06.591Z,99.90
2023-04-08T10:16:28.329Z,99.90
2023-04-08T10:21:48.730Z,99.90
2023-04-08T10:26:51.275Z,99.90
2023-04-08T10:31:53.914Z,99.90
2023-04-08T10:36:59.101Z,99.90
2023-04-08T10:42:02.731Z,99.90
2023-04-08T10:47:05.719Z,99.90
2023-04-08T10:52:09.383Z,99.90
2023-04-08T10:57:11.990Z,99.90
2023-04-08T11:02:16.358Z,99.90
2023-04-08T11:07:21.282Z,99.90
2023-04-08T11:12:23.945Z,99.90
2023-04-08T11:17:27.367Z,99.90
2023-04-08T11:22:31.030Z,99.50
2023-04-08T11:27:33.662Z,99.90
2023-04-08T11:32:37.253Z,98.60
2023-04-08T11:37:41.186Z,94.60
2023-04-08T11:42:45.942Z,95.00
2023-04-08T11:47:50.000Z,96.40
2023-04-08T11:52:53.416Z,98.50
2023-04-08T11:57:58.092Z,96.50
2023-04-08T12:03:01.307Z,96.50
2023-04-08T12:08:04.378Z,96.60
2023-04-08T12:13:07.134Z,95.60
2023-04-08T12:18:09.690Z,97.40
2023-04-08T12:23:12.299Z,95.30
2023-04-08T12:28:14.782Z,94.70
2023-04-08T12:33:17.415Z,95.20
2023-04-08T12:38:19.955Z,94.70
2023-04-08T12:43:23.748Z,94.50
2023-04-08T12:48:26.468Z,96.10
2023-04-08T12:53:29.157Z,96.20
2023-04-08T12:58:31.805Z,95.50
2023-04-08T13:03:36.246Z,95.20
2023-04-08T13:08:38.910Z,96.20
2023-04-08T13:13:41.595Z,94.60
2023-04-08T13:18:44.117Z,96.30
2023-04-08T13:23:47.027Z,94.00
2023-04-08T13:28:56.784Z,93.70
2023-04-08T13:34:00.159Z,94.60
2023-04-08T13:39:02.878Z,95.20
2023-04-08T13:44:05.799Z,93.50
2023-04-08T13:49:09.552Z,94.70
2023-04-08T13:54:12.294Z,93.80
2023-04-08T13:59:15.436Z,95.80
2023-04-08T14:04:18.571Z,96.70
2023-04-08T14:09:21.367Z,95.40
2023-04-08T14:14:24.100Z,94.80
2023-04-08T14:19:26.639Z,95.60
2023-04-08T14:24:29.238Z,97.10
2023-04-08T14:29:31.825Z,99.90
2023-04-08T14:34:35.070Z,99.90
2023-04-08T14:39:37.519Z,99.90
2023-04-08T14:44:40.063Z,99.90
2023-04-08T14:49:42.514Z,96.60
2023-04-08T14:54:45.371Z,95.20
2023-04-08T14:59:48.118Z,93.00
2023-04-08T15:04:50.705Z,93.40
2023-04-08T15:09:54.271Z,92.90
2023-04-08T15:14:56.880Z,92.80
2023-04-08T15:19:59.512Z,93.20
2023-04-08T15:25:05.007Z,94.70
2023-04-08T15:30:10.692Z,95.50
2023-04-08T15:35:14.386Z,95.90
2023-04-08T15:40:17.239Z,97.10
2023-04-08T15:45:20.088Z,97.50
2023-04-08T15:50:22.774Z,97.90
2023-04-08T15:55:25.293Z,96.40
2023-04-08T16:00:27.746Z,95.40
2023-04-08T16:05:31.246Z,94.20
2023-04-08T16:10:34.441Z,94.40
2023-04-08T16:15:37.289Z,93.90
2023-04-08T16:20:40.999Z,93.70
2023-04-08T16:25:44.512Z,94.90
2023-04-08T16:30:47.877Z,95.90
2023-04-08T16:35:50.669Z,95.30
2023-04-08T16:40:56.874Z,95.90
2023-04-08T16:45:59.536Z,96.40
2023-04-08T16:51:08.121Z,96.90
2023-04-08T16:56:14.892Z,97.70
2023-04-08T17:01:17.539Z,98.30
2023-04-08T17:06:20.010Z,98.80
2023-04-08T17:11:22.679Z,99.90
2023-04-08T17:16:25.472Z,99.90
2023-04-08T17:21:28.439Z,99.90
2023-04-08T17:26:31.391Z,99.90
2023-04-08T17:31:36.226Z,99.90
2023-04-08T17:36:38.794Z,99.90
2023-04-08T17:41:42.929Z,99.90
2023-04-08T17:46:47.092Z,99.90
2023-04-08T17:51:50.380Z,99.90
2023-04-08T17:56:53.164Z,99.90
2023-04-08T18:01:55.868Z,99.90
2023-04-08T18:06:59.764Z,99.90
2023-04-08T18:12:02.352Z,99.90
2023-04-08T18:17:05.498Z,99.90
2023-04-08T18:22:08.164Z,99.90
2023-04-08T18:27:11.367Z,99.90
2023-04-08T18:32:13.979Z,99.90
2023-04-08T18:37:18.041Z,99.90
2023-04-08T18:42:20.780Z,99.90
2023-04-08T18:47:23.166Z,99.90
2023-04-08T18:52:25.982Z,99.90
2023-04-08T18:57:28.527Z,99.90
2023-04-08T19:02:31.930Z,99.90
2023-04-08T19:07:35.052Z,99.90
2023-04-08T19:12:37.677Z,99.90
2023-04-08T19:17:40.524Z,99.90
2023-04-08T19:22:43.980Z,99.90
2023-04-08T19:27:48.946Z,99.90
2023-04-08T19:32:51.863Z,99.90
2023-04-08T19:37:54.395Z,99.90
2023-04-08T19:42:57.042Z,99.90
2023-04-08T19:47:59.720Z,99.90
2023-04-08T19:53:02.959Z,99.90
2023-04-08T19:58:05.889Z,99.90
2023-04-08T20:03:08.864Z,99.90
2023-04-08T20:08:11.679Z,99.90
2023-04-08T20:13:15.096Z,99.90
2023-04-08T20:18:17.850Z,99.90
2023-04-08T20:23:21.036Z,99.90
2023-04-08T20:28:24.106Z,99.90
2023-04-08T20:33:27.082Z,99.90
2023-04-08T20:38:31.794Z,99.90
2023-04-08T20:43:34.588Z,99.90
2023-04-08T20:48:37.200Z,99.90
2023-04-08T20:53:41.215Z,99.90
2023-04-08T20:58:45.485Z,99.90
2023-04-08T21:03:49.105Z,99.90
2023-04-08T21:08:52.012Z,99.90
2023-04-08T21:13:54.810Z,99.90
2023-04-08T21:18:59.237Z,99.90
2023-04-08T21:24:01.871Z,99.90
2023-04-08T21:29:04.650Z,99.90
2023-04-08T21:34:07.335Z,99.90
2023-04-08T21:39:09.949Z,99.90
2023-04-08T21:44:12.491Z,99.90
2023-04-08T21:49:15.727Z,99.90
2023-04-08T21:54:18.235Z,99.90
2023-04-08T21:59:20.898Z,99.90
2023-04-08T22:04:23.449Z,99.90
2023-04-08T22:09:25.926Z,99.90
2023-04-08T22:14:28.450Z,99.90
2023-04-08T22:19:30.962Z,99.90
2023-04-08T22:24:33.455Z,99.90
2023-04-08T22:29:36.160Z,99.90
2023-04-08T22:34:38.603Z,99.90
2023-04-08T22:39:41.338Z,99.90
2023-04-08T22:44:43.891Z,99.90
2023-04-08T22:49:46.484Z,99.90
2023-04-08T22:54:49.135Z,99.90
2023-04-08T22:59:51.693Z,99.90
2023-04-08T23:04:56.383Z,99.90
2023-04-08T23:09:59.012Z,99.90
2023-04-08T23:15:01.469Z,99.90
2023-04-08T23:20:04.403Z,99.90
2023-04-08T23:25:08.014Z,99.90
2023-04-08T23:35:13.924Z,99.90
2023-04-08T23:45:19.297Z,99.90
2023-04-08T23:50:23.136Z,99.90
2023-04-08T23:55:25.630Z,99.90
